Tofte, Minnesota
Current Conditions -  °F | °C
As of 6:54 AM on Monday 22 Dec 2014 (Local Time) from KCKC Reporting Station
Light Snow Light Snow  
Wind Chill: -1°   Ceiling: 200
Heat Index: -1°   Visibility: 0.25mi
Dew Point: -2°   Wind: 3mph
Humidity: 93%   Direction: 160°SSE
Pressure: 29.75"   Gusts: NA
Location:  47.57°N, 90.84°W
Report Text: KCKC 221254Z AUTO 16003KT 1/4SM -SN OVC002 M01/M02 A2975 RMK AO2
Loading
Personal Weather Stations






























Interactive Weather Map New forecast layout! Learn more

10-Day Weather Forecast

Advertisements
Track Severe Weather on mobile